sensor_id;sensor_type;location;lat;lon;timestamp;temperature;humidity
20400;DHT22;10359;53.596;22.520;2022-12-11T00:00:15;-2.00;99.90
20400;DHT22;10359;53.596;22.520;2022-12-11T00:03:07;-2.00;99.90
20400;DHT22;10359;53.596;22.520;2022-12-11T00:06:05;-2.00;99.90
20400;DHT22;10359;53.596;22.520;2022-12-11T00:08:55;-1.90;99.90
20400;DHT22;10359;53.596;22.520;2022-12-11T00:11:45;-2.00;99.90
20400;DHT22;10359;53.596;22.520;2022-12-11T00:14:35;-1.90;99.90
20400;DHT22;10359;53.596;22.520;2022-12-11T00:17:24;-2.00;99.90
20400;DHT22;10359;53.596;22.520;2022-12-11T00:20:16;-2.00;99.90
20400;DHT22;10359;53.596;22.520;2022-12-11T00:23:05;-1.80;99.90
20400;DHT22;10359;53.596;22.520;2022-12-11T00:25:55;-1.90;99.90
20400;DHT22;10359;53.596;22.520;2022-12-11T00:28:45;-2.00;99.90
20400;DHT22;10359;53.596;22.520;2022-12-11T00:31:35;-2.10;99.90
20400;DHT22;10359;53.596;22.520;2022-12-11T00:34:24;-2.20;99.90
20400;DHT22;10359;53.596;22.520;2022-12-11T00:37:16;-2.20;99.90
20400;DHT22;10359;53.596;22.520;2022-12-11T00:40:07;-2.20;99.90
20400;DHT22;10359;53.596;22.520;2022-12-11T00:42:57;-2.20;99.90
20400;DHT22;10359;53.596;22.520;2022-12-11T00:45:46;-2.20;99.90
20400;DHT22;10359;53.596;22.520;2022-12-11T00:48:36;-2.20;99.90
20400;DHT22;10359;53.596;22.520;2022-12-11T00:51:26;-2.10;99.90
20400;DHT22;10359;53.596;22.520;2022-12-11T00:54:17;-2.10;99.90
20400;DHT22;10359;53.596;22.520;2022-12-11T00:57:07;-2.20;99.90
20400;DHT22;10359;53.596;22.520;2022-12-11T00:59:56;-2.10;99.90
20400;DHT22;10359;53.596;22.520;2022-12-11T01:02:46;-2.10;99.90
20400;DHT22;10359;53.596;22.520;2022-12-11T01:05:36;-2.10;99.90
20400;DHT22;10359;53.596;22.520;2022-12-11T01:08:25;-2.10;99.90
20400;DHT22;10359;53.596;22.520;2022-12-11T01:11:22;-2.00;99.90
20400;DHT22;10359;53.596;22.520;2022-12-11T01:14:12;-1.90;99.90
20400;DHT22;10359;53.596;22.520;2022-12-11T01:17:02;-1.90;99.90
20400;DHT22;10359;53.596;22.520;2022-12-11T01:19:53;-1.80;99.90
20400;DHT22;10359;53.596;22.520;2022-12-11T01:22:43;-1.80;99.90
20400;DHT22;10359;53.596;22.520;2022-12-11T01:25:35;-1.80;99.90
20400;DHT22;10359;53.596;22.520;2022-12-11T01:28:27;-1.80;99.90
20400;DHT22;10359;53.596;22.520;2022-12-11T01:31:18;-1.80;99.90
20400;DHT22;10359;53.596;22.520;2022-12-11T01:34:08;-1.80;99.90
20400;DHT22;10359;53.596;22.520;2022-12-11T01:36:58;-1.90;99.90
20400;DHT22;10359;53.596;22.520;2022-12-11T01:39:48;-1.70;99.90
20400;DHT22;10359;53.596;22.520;2022-12-11T01:42:38;-1.70;99.90
20400;DHT22;10359;53.596;22.520;2022-12-11T01:45:42;-1.70;99.90
20400;DHT22;10359;53.596;22.520;2022-12-11T01:48:32;-1.70;99.90
20400;DHT22;10359;53.596;22.520;2022-12-11T01:51:30;-1.60;99.90
20400;DHT22;10359;53.596;22.520;2022-12-11T01:54:22;-1.60;99.90
20400;DHT22;10359;53.596;22.520;2022-12-11T01:57:14;-1.60;99.90
20400;DHT22;10359;53.596;22.520;2022-12-11T02:00:05;-1.60;99.90
20400;DHT22;10359;53.596;22.520;2022-12-11T02:02:57;-1.50;99.90
20400;DHT22;10359;53.596;22.520;2022-12-11T02:05:46;-1.50;99.90
20400;DHT22;10359;53.596;22.520;2022-12-11T02:08:36;-1.50;99.90
20400;DHT22;10359;53.596;22.520;2022-12-11T02:11:31;-1.50;99.90
20400;DHT22;10359;53.596;22.520;2022-12-11T02:14:30;-1.50;99.90
20400;DHT22;10359;53.596;22.520;2022-12-11T02:17:31;-1.50;99.90
20400;DHT22;10359;53.596;22.520;2022-12-11T02:20:28;-1.50;99.90
20400;DHT22;10359;53.596;22.520;2022-12-11T02:23:42;-1.60;99.90
20400;DHT22;10359;53.596;22.520;2022-12-11T02:30:04;-1.60;99.90
20400;DHT22;10359;53.596;22.520;2022-12-11T02:32:57;-1.60;99.90
20400;DHT22;10359;53.596;22.520;2022-12-11T02:35:50;-1.60;99.90
20400;DHT22;10359;53.596;22.520;2022-12-11T02:38:42;-1.70;99.90
20400;DHT22;10359;53.596;22.520;2022-12-11T02:41:38;-1.70;99.90
20400;DHT22;10359;53.596;22.520;2022-12-11T02:44:29;-1.80;99.90
20400;DHT22;10359;53.596;22.520;2022-12-11T02:47:24;-1.80;99.90
20400;DHT22;10359;53.596;22.520;2022-12-11T02:50:18;-1.90;99.90
20400;DHT22;10359;53.596;22.520;2022-12-11T02:53:10;-1.90;99.90
20400;DHT22;10359;53.596;22.520;2022-12-11T02:56:03;-2.00;99.90
20400;DHT22;10359;53.596;22.520;2022-12-11T02:58:56;-2.00;99.90
20400;DHT22;10359;53.596;22.520;2022-12-11T03:01:48;-1.90;99.90
20400;DHT22;10359;53.596;22.520;2022-12-11T03:04:40;-1.90;99.90
20400;DHT22;10359;53.596;22.520;2022-12-11T03:07:33;-1.90;99.90
20400;DHT22;10359;53.596;22.520;2022-12-11T03:10:23;-2.00;99.90
20400;DHT22;10359;53.596;22.520;2022-12-11T03:13:16;-2.10;99.90
20400;DHT22;10359;53.596;22.520;2022-12-11T03:16:13;-2.10;99.90
20400;DHT22;10359;53.596;22.520;2022-12-11T03:19:10;-2.20;99.90
20400;DHT22;10359;53.596;22.520;2022-12-11T03:22:09;-2.20;99.90
20400;DHT22;10359;53.596;22.520;2022-12-11T03:25:01;-2.20;99.90
20400;DHT22;10359;53.596;22.520;2022-12-11T03:27:57;-2.20;99.90
20400;DHT22;10359;53.596;22.520;2022-12-11T03:30:49;-2.30;99.90
20400;DHT22;10359;53.596;22.520;2022-12-11T03:33:40;-2.30;99.90
20400;DHT22;10359;53.596;22.520;2022-12-11T03:36:35;-2.30;99.90
20400;DHT22;10359;53.596;22.520;2022-12-11T03:39:29;-2.30;99.90
20400;DHT22;10359;53.596;22.520;2022-12-11T03:42:21;-2.30;99.90
20400;DHT22;10359;53.596;22.520;2022-12-11T03:45:12;-2.40;99.90
20400;DHT22;10359;53.596;22.520;2022-12-11T03:48:02;-2.40;99.90
20400;DHT22;10359;53.596;22.520;2022-12-11T03:50:54;-2.30;99.90
20400;DHT22;10359;53.596;22.520;2022-12-11T03:53:47;-2.40;99.90
20400;DHT22;10359;53.596;22.520;2022-12-11T03:56:38;-2.40;99.90
20400;DHT22;10359;53.596;22.520;2022-12-11T03:59:30;-2.40;99.90
20400;DHT22;10359;53.596;22.520;2022-12-11T04:02:19;-2.40;99.90
20400;DHT22;10359;53.596;22.520;2022-12-11T04:05:09;-2.40;99.90
20400;DHT22;10359;53.596;22.520;2022-12-11T04:08:00;-2.50;99.90
20400;DHT22;10359;53.596;22.520;2022-12-11T04:10:50;-2.60;99.90
20400;DHT22;10359;53.596;22.520;2022-12-11T04:14:02;-2.50;99.90
20400;DHT22;10359;53.596;22.520;2022-12-11T04:17:21;-2.40;99.90
20400;DHT22;10359;53.596;22.520;2022-12-11T04:20:24;-2.60;99.90
20400;DHT22;10359;53.596;22.520;2022-12-11T04:23:30;-2.50;99.90
20400;DHT22;10359;53.596;22.520;2022-12-11T04:26:37;-2.50;99.90
20400;DHT22;10359;53.596;22.520;2022-12-11T04:29:28;-2.40;99.90
20400;DHT22;10359;53.596;22.520;2022-12-11T04:32:17;-2.40;99.90
20400;DHT22;10359;53.596;22.520;2022-12-11T04:35:08;-2.40;99.90
20400;DHT22;10359;53.596;22.520;2022-12-11T04:37:58;-2.50;99.90
20400;DHT22;10359;53.596;22.520;2022-12-11T04:40:47;-2.60;99.90
20400;DHT22;10359;53.596;22.520;2022-12-11T04:43:37;-2.50;99.90
20400;DHT22;10359;53.596;22.520;2022-12-11T04:46:28;-2.50;99.90
20400;DHT22;10359;53.596;22.520;2022-12-11T04:49:18;-2.40;99.90
20400;DHT22;10359;53.596;22.520;2022-12-11T04:52:07;-2.50;99.90
20400;DHT22;10359;53.596;22.520;2022-12-11T04:54:56;-2.40;99.90
20400;DHT22;10359;53.596;22.520;2022-12-11T04:57:46;-2.50;99.90
20400;DHT22;10359;53.596;22.520;2022-12-11T05:00:35;-2.50;99.90
20400;DHT22;10359;53.596;22.520;2022-12-11T05:03:26;-2.40;99.90
20400;DHT22;10359;53.596;22.520;2022-12-11T05:06:15;-2.50;99.90
20400;DHT22;10359;53.596;22.520;2022-12-11T05:09:05;-2.40;99.90
20400;DHT22;10359;53.596;22.520;2022-12-11T05:11:55;-2.40;99.90
20400;DHT22;10359;53.596;22.520;2022-12-11T05:14:44;-2.50;99.90
20400;DHT22;10359;53.596;22.520;2022-12-11T05:17:34;-2.40;99.90
20400;DHT22;10359;53.596;22.520;2022-12-11T05:20:24;-2.40;99.90
20400;DHT22;10359;53.596;22.520;2022-12-11T05:23:14;-2.40;99.90
20400;DHT22;10359;53.596;22.520;2022-12-11T05:26:06;-2.30;99.90
20400;DHT22;10359;53.596;22.520;2022-12-11T05:28:57;-2.40;99.90
20400;DHT22;10359;53.596;22.520;2022-12-11T05:31:46;-2.30;99.90
20400;DHT22;10359;53.596;22.520;2022-12-11T05:34:35;-2.30;99.90
20400;DHT22;10359;53.596;22.520;2022-12-11T05:37:26;-2.30;99.90
20400;DHT22;10359;53.596;22.520;2022-12-11T05:40:16;-2.30;99.90
20400;DHT22;10359;53.596;22.520;2022-12-11T05:43:05;-2.30;99.90
20400;DHT22;10359;53.596;22.520;2022-12-11T05:46:08;-2.20;99.90
20400;DHT22;10359;53.596;22.520;2022-12-11T05:48:59;-2.20;99.90
20400;DHT22;10359;53.596;22.520;2022-12-11T05:51:48;-2.30;99.90
20400;DHT22;10359;53.596;22.520;2022-12-11T05:54:39;-2.20;99.90
20400;DHT22;10359;53.596;22.520;2022-12-11T05:57:28;-2.20;99.90
20400;DHT22;10359;53.596;22.520;2022-12-11T06:00:18;-2.60;99.90
20400;DHT22;10359;53.596;22.520;2022-12-11T06:03:07;-2.50;99.90
20400;DHT22;10359;53.596;22.520;2022-12-11T06:05:59;-2.20;99.90
20400;DHT22;10359;53.596;22.520;2022-12-11T06:08:49;-2.10;99.90
20400;DHT22;10359;53.596;22.520;2022-12-11T06:11:40;-2.20;99.90
20400;DHT22;10359;53.596;22.520;2022-12-11T06:14:33;-2.30;99.90
20400;DHT22;10359;53.596;22.520;2022-12-11T06:17:22;-2.60;99.90
20400;DHT22;10359;53.596;22.520;2022-12-11T06:20:11;-2.30;99.90
20400;DHT22;10359;53.596;22.520;2022-12-11T06:23:14;-2.30;99.90
20400;DHT22;10359;53.596;22.520;2022-12-11T06:26:03;-2.30;99.90
20400;DHT22;10359;53.596;22.520;2022-12-11T06:28:55;-2.40;99.90
20400;DHT22;10359;53.596;22.520;2022-12-11T06:31:52;-2.40;99.90
20400;DHT22;10359;53.596;22.520;2022-12-11T06:34:44;-2.40;99.90
20400;DHT22;10359;53.596;22.520;2022-12-11T06:37:36;-2.30;99.90
20400;DHT22;10359;53.596;22.520;2022-12-11T06:40:25;-2.40;99.90
20400;DHT22;10359;53.596;22.520;2022-12-11T06:43:14;-2.40;99.90
20400;DHT22;10359;53.596;22.520;2022-12-11T06:46:07;-2.40;99.90
20400;DHT22;10359;53.596;22.520;2022-12-11T06:48:56;-2.40;99.90
20400;DHT22;10359;53.596;22.520;2022-12-11T06:51:45;-2.30;99.90
20400;DHT22;10359;53.596;22.520;2022-12-11T06:54:35;-2.50;99.90
20400;DHT22;10359;53.596;22.520;2022-12-11T06:57:24;-2.20;99.90
20400;DHT22;10359;53.596;22.520;2022-12-11T07:00:14;-2.30;99.90
20400;DHT22;10359;53.596;22.520;2022-12-11T07:03:05;-2.20;99.90
20400;DHT22;10359;53.596;22.520;2022-12-11T07:05:59;-2.20;99.90
20400;DHT22;10359;53.596;22.520;2022-12-11T07:08:50;-2.10;99.90
20400;DHT22;10359;53.596;22.520;2022-12-11T07:11:39;-2.20;99.90
20400;DHT22;10359;53.596;22.520;2022-12-11T07:14:28;-2.10;99.90
20400;DHT22;10359;53.596;22.520;2022-12-11T07:17:18;-2.10;99.90
20400;DHT22;10359;53.596;22.520;2022-12-11T07:20:09;-2.20;99.90
20400;DHT22;10359;53.596;22.520;2022-12-11T07:22:59;-2.10;99.90
20400;DHT22;10359;53.596;22.520;2022-12-11T07:25:48;-2.20;99.90
20400;DHT22;10359;53.596;22.520;2022-12-11T07:28:38;-2.10;99.90
20400;DHT22;10359;53.596;22.520;2022-12-11T07:31:28;-2.30;99.90
20400;DHT22;10359;53.596;22.520;2022-12-11T07:34:18;-2.00;99.90
20400;DHT22;10359;53.596;22.520;2022-12-11T07:37:09;-2.00;99.90
20400;DHT22;10359;53.596;22.520;2022-12-11T07:39:58;-2.20;99.90
20400;DHT22;10359;53.596;22.520;2022-12-11T07:42:47;-2.20;99.90
20400;DHT22;10359;53.596;22.520;2022-12-11T07:45:37;-2.10;99.90
20400;DHT22;10359;53.596;22.520;2022-12-11T07:48:29;-2.10;99.90
20400;DHT22;10359;53.596;22.520;2022-12-11T07:51:20;-2.10;99.90
20400;DHT22;10359;53.596;22.520;2022-12-11T07:54:15;-2.00;99.90
20400;DHT22;10359;53.596;22.520;2022-12-11T07:57:04;-2.00;99.90
20400;DHT22;10359;53.596;22.520;2022-12-11T08:00:00;-2.00;99.90
20400;DHT22;10359;53.596;22.520;2022-12-11T08:02:50;-2.00;99.90
20400;DHT22;10359;53.596;22.520;2022-12-11T08:05:39;-2.00;99.90
20400;DHT22;10359;53.596;22.520;2022-12-11T08:08:28;-2.00;99.90
20400;DHT22;10359;53.596;22.520;2022-12-11T08:11:19;-2.00;99.90
20400;DHT22;10359;53.596;22.520;2022-12-11T08:14:11;-1.90;99.90
20400;DHT22;10359;53.596;22.520;2022-12-11T08:17:01;-1.80;99.90
20400;DHT22;10359;53.596;22.520;2022-12-11T08:19:54;-1.80;99.90
20400;DHT22;10359;53.596;22.520;2022-12-11T08:22:46;-1.80;99.90
20400;DHT22;10359;53.596;22.520;2022-12-11T08:25:35;-1.80;99.90
20400;DHT22;10359;53.596;22.520;2022-12-11T08:28:26;-1.80;99.90
20400;DHT22;10359;53.596;22.520;2022-12-11T08:31:16;-1.80;99.90
20400;DHT22;10359;53.596;22.520;2022-12-11T08:34:15;-1.90;99.90
20400;DHT22;10359;53.596;22.520;2022-12-11T08:37:05;-1.80;99.90
20400;DHT22;10359;53.596;22.520;2022-12-11T08:39:59;-1.70;99.90
20400;DHT22;10359;53.596;22.520;2022-12-11T08:42:49;-1.70;99.90
20400;DHT22;10359;53.596;22.520;2022-12-11T08:45:42;-1.70;99.90
20400;DHT22;10359;53.596;22.520;2022-12-11T08:48:32;-1.70;99.90
20400;DHT22;10359;53.596;22.520;2022-12-11T08:51:23;-1.70;99.90
20400;DHT22;10359;53.596;22.520;2022-12-11T08:54:13;-1.80;99.90
20400;DHT22;10359;53.596;22.520;2022-12-11T08:57:05;-1.80;99.90
20400;DHT22;10359;53.596;22.520;2022-12-11T08:59:57;-1.80;99.90
20400;DHT22;10359;53.596;22.520;2022-12-11T09:02:52;-1.70;99.90
20400;DHT22;10359;53.596;22.520;2022-12-11T09:05:43;-1.70;99.90
20400;DHT22;10359;53.596;22.520;2022-12-11T09:08:44;-1.70;99.90
20400;DHT22;10359;53.596;22.520;2022-12-11T09:11:39;-1.80;99.90
20400;DHT22;10359;53.596;22.520;2022-12-11T09:14:30;-1.90;99.90
20400;DHT22;10359;53.596;22.520;2022-12-11T09:17:19;-1.90;99.90
20400;DHT22;10359;53.596;22.520;2022-12-11T09:20:12;-1.80;99.90
20400;DHT22;10359;53.596;22.520;2022-12-11T09:23:02;-1.80;99.90
20400;DHT22;10359;53.596;22.520;2022-12-11T09:25:51;-1.70;99.90
20400;DHT22;10359;53.596;22.520;2022-12-11T09:28:44;-1.70;99.90
20400;DHT22;10359;53.596;22.520;2022-12-11T09:31:35;-1.60;99.90
20400;DHT22;10359;53.596;22.520;2022-12-11T09:34:25;-1.50;99.90
20400;DHT22;10359;53.596;22.520;2022-12-11T09:37:17;-1.60;99.90
20400;DHT22;10359;53.596;22.520;2022-12-11T09:40:10;-1.60;99.90
20400;DHT22;10359;53.596;22.520;2022-12-11T09:43:05;-1.50;99.90
20400;DHT22;10359;53.596;22.520;2022-12-11T09:46:00;-1.60;99.90
20400;DHT22;10359;53.596;22.520;2022-12-11T09:48:51;-1.60;99.90
20400;DHT22;10359;53.596;22.520;2022-12-11T09:51:43;-1.60;99.90
20400;DHT22;10359;53.596;22.520;2022-12-11T09:54:43;-1.50;99.90
20400;DHT22;10359;53.596;22.520;2022-12-11T09:57:40;-1.50;99.90
20400;DHT22;10359;53.596;22.520;2022-12-11T10:00:35;-1.50;99.90
20400;DHT22;10359;53.596;22.520;2022-12-11T10:03:44;-1.70;99.90
20400;DHT22;10359;53.596;22.520;2022-12-11T10:06:41;-1.60;99.90
20400;DHT22;10359;53.596;22.520;2022-12-11T10:09:40;-1.50;99.90
20400;DHT22;10359;53.596;22.520;2022-12-11T10:12:38;-1.50;99.90
20400;DHT22;10359;53.596;22.520;2022-12-11T10:15:50;-1.50;99.90
20400;DHT22;10359;53.596;22.520;2022-12-11T10:18:41;-1.50;99.90
20400;DHT22;10359;53.596;22.520;2022-12-11T10:21:39;-1.50;99.90
20400;DHT22;10359;53.596;22.520;2022-12-11T10:24:43;-1.50;99.90
20400;DHT22;10359;53.596;22.520;2022-12-11T10:27:53;-1.40;99.90
20400;DHT22;10359;53.596;22.520;2022-12-11T10:30:48;-1.40;99.90
20400;DHT22;10359;53.596;22.520;2022-12-11T10:33:48;-1.40;99.90
20400;DHT22;10359;53.596;22.520;2022-12-11T10:36:42;-1.40;99.90
20400;DHT22;10359;53.596;22.520;2022-12-11T10:39:32;-1.40;99.90
20400;DHT22;10359;53.596;22.520;2022-12-11T10:42:23;-1.40;99.90
20400;DHT22;10359;53.596;22.520;2022-12-11T10:45:15;-1.30;99.90
20400;DHT22;10359;53.596;22.520;2022-12-11T10:48:08;-1.30;99.90
20400;DHT22;10359;53.596;22.520;2022-12-11T10:51:00;-1.40;99.90
20400;DHT22;10359;53.596;22.520;2022-12-11T10:53:51;-1.40;99.90
20400;DHT22;10359;53.596;22.520;2022-12-11T10:56:40;-1.30;99.90
20400;DHT22;10359;53.596;22.520;2022-12-11T10:59:37;-1.40;99.90
20400;DHT22;10359;53.596;22.520;2022-12-11T11:02:29;-1.50;99.90
20400;DHT22;10359;53.596;22.520;2022-12-11T11:05:28;-1.70;99.90
20400;DHT22;10359;53.596;22.520;2022-12-11T11:08:22;-1.60;99.90
20400;DHT22;10359;53.596;22.520;2022-12-11T11:11:33;-1.50;99.90
20400;DHT22;10359;53.596;22.520;2022-12-11T11:14:24;-1.50;99.90
20400;DHT22;10359;53.596;22.520;2022-12-11T11:17:16;-1.50;99.90
20400;DHT22;10359;53.596;22.520;2022-12-11T11:20:12;-1.50;99.90
20400;DHT22;10359;53.596;22.520;2022-12-11T11:23:07;-1.50;99.90
20400;DHT22;10359;53.596;22.520;2022-12-11T11:26:00;-1.40;99.90
20400;DHT22;10359;53.596;22.520;2022-12-11T11:28:52;-1.30;99.90
20400;DHT22;10359;53.596;22.520;2022-12-11T11:31:44;-1.30;99.90
20400;DHT22;10359;53.596;22.520;2022-12-11T11:34:34;-1.30;99.90
20400;DHT22;10359;53.596;22.520;2022-12-11T11:37:29;-1.30;99.90
20400;DHT22;10359;53.596;22.520;2022-12-11T11:40:23;-1.20;99.90
20400;DHT22;10359;53.596;22.520;2022-12-11T11:43:18;-1.20;99.90
20400;DHT22;10359;53.596;22.520;2022-12-11T11:46:13;-1.30;99.90
20400;DHT22;10359;53.596;22.520;2022-12-11T11:49:06;-1.30;99.90
20400;DHT22;10359;53.596;22.520;2022-12-11T11:52:06;-1.40;99.90
20400;DHT22;10359;53.596;22.520;2022-12-11T11:55:06;-1.40;99.90
20400;DHT22;10359;53.596;22.520;2022-12-11T11:58:01;-1.50;99.90
20400;DHT22;10359;53.596;22.520;2022-12-11T12:00:52;-1.50;99.90
20400;DHT22;10359;53.596;22.520;2022-12-11T12:03:42;-1.60;99.90
20400;DHT22;10359;53.596;22.520;2022-12-11T12:10:02;-1.40;99.90
20400;DHT22;10359;53.596;22.520;2022-12-11T12:13:02;-1.50;99.90
20400;DHT22;10359;53.596;22.520;2022-12-11T12:16:21;-1.60;99.90
20400;DHT22;10359;53.596;22.520;2022-12-11T12:19:47;-1.50;99.90
20400;DHT22;10359;53.596;22.520;2022-12-11T12:22:54;-1.60;99.90
20400;DHT22;10359;53.596;22.520;2022-12-11T12:25:50;-1.70;99.90
20400;DHT22;10359;53.596;22.520;2022-12-11T12:28:45;-1.70;99.90
20400;DHT22;10359;53.596;22.520;2022-12-11T12:31:52;-1.70;99.90
20400;DHT22;10359;53.596;22.520;2022-12-11T12:34:58;-1.70;99.90
20400;DHT22;10359;53.596;22.520;2022-12-11T12:37:55;-1.80;99.90
20400;DHT22;10359;53.596;22.520;2022-12-11T12:40:56;-1.70;99.90
20400;DHT22;10359;53.596;22.520;2022-12-11T12:44:03;-1.70;99.90
20400;DHT22;10359;53.596;22.520;2022-12-11T12:46:57;-1.70;99.90
20400;DHT22;10359;53.596;22.520;2022-12-11T12:49:49;-1.70;99.90
20400;DHT22;10359;53.596;22.520;2022-12-11T12:52:40;-1.70;99.90
20400;DHT22;10359;53.596;22.520;2022-12-11T12:55:31;-1.70;99.90
20400;DHT22;10359;53.596;22.520;2022-12-11T12:58:29;-1.80;99.90
20400;DHT22;10359;53.596;22.520;2022-12-11T13:01:20;-1.80;99.90
20400;DHT22;10359;53.596;22.520;2022-12-11T13:04:27;-1.90;99.90
20400;DHT22;10359;53.596;22.520;2022-12-11T13:07:48;-1.90;99.90
20400;DHT22;10359;53.596;22.520;2022-12-11T13:10:41;-1.90;99.90
20400;DHT22;10359;53.596;22.520;2022-12-11T13:13:36;-2.00;99.90
20400;DHT22;10359;53.596;22.520;2022-12-11T13:16:34;-2.00;99.90
20400;DHT22;10359;53.596;22.520;2022-12-11T13:19:27;-2.00;99.90
20400;DHT22;10359;53.596;22.520;2022-12-11T13:22:27;-2.10;99.90
20400;DHT22;10359;53.596;22.520;2022-12-11T13:25:23;-2.10;99.90
20400;DHT22;10359;53.596;22.520;2022-12-11T13:28:30;-2.20;99.90
20400;DHT22;10359;53.596;22.520;2022-12-11T13:31:34;-2.20;99.90
20400;DHT22;10359;53.596;22.520;2022-12-11T13:34:24;-2.20;99.90
20400;DHT22;10359;53.596;22.520;2022-12-11T13:37:25;-2.20;99.90
20400;DHT22;10359;53.596;22.520;2022-12-11T13:40:19;-2.30;99.90
20400;DHT22;10359;53.596;22.520;2022-12-11T13:43:17;-2.30;99.90
20400;DHT22;10359;53.596;22.520;2022-12-11T13:46:11;-2.30;99.90
20400;DHT22;10359;53.596;22.520;2022-12-11T13:49:05;-2.30;99.90
20400;DHT22;10359;53.596;22.520;2022-12-11T13:51:57;-2.30;99.90
20400;DHT22;10359;53.596;22.520;2022-12-11T13:54:48;-2.40;99.90
20400;DHT22;10359;53.596;22.520;2022-12-11T13:57:44;-2.30;99.90
20400;DHT22;10359;53.596;22.520;2022-12-11T14:00:35;-2.30;99.90
20400;DHT22;10359;53.596;22.520;2022-12-11T14:03:25;-2.40;99.90
20400;DHT22;10359;53.596;22.520;2022-12-11T14:06:17;-2.40;99.90
20400;DHT22;10359;53.596;22.520;2022-12-11T14:09:07;-2.40;99.90
20400;DHT22;10359;53.596;22.520;2022-12-11T14:11:57;-2.40;99.90
20400;DHT22;10359;53.596;22.520;2022-12-11T14:14:49;-2.50;99.90
20400;DHT22;10359;53.596;22.520;2022-12-11T14:17:41;-2.40;99.90
20400;DHT22;10359;53.596;22.520;2022-12-11T14:20:38;-2.40;99.90
20400;DHT22;10359;53.596;22.520;2022-12-11T14:23:31;-2.50;99.90
20400;DHT22;10359;53.596;22.520;2022-12-11T14:26:22;-2.60;99.90
20400;DHT22;10359;53.596;22.520;2022-12-11T14:29:25;-2.50;99.90
20400;DHT22;10359;53.596;22.520;2022-12-11T14:32:19;-2.70;99.90
20400;DHT22;10359;53.596;22.520;2022-12-11T14:35:24;-2.70;99.90
20400;DHT22;10359;53.596;22.520;2022-12-11T14:38:17;-2.70;99.90
20400;DHT22;10359;53.596;22.520;2022-12-11T14:41:12;-2.70;99.90
20400;DHT22;10359;53.596;22.520;2022-12-11T14:44:11;-2.70;99.90
20400;DHT22;10359;53.596;22.520;2022-12-11T14:47:04;-2.70;99.90
20400;DHT22;10359;53.596;22.520;2022-12-11T14:50:01;-2.80;99.90
20400;DHT22;10359;53.596;22.520;2022-12-11T14:52:54;-3.10;99.90
20400;DHT22;10359;53.596;22.520;2022-12-11T14:55:49;-2.70;99.90
20400;DHT22;10359;53.596;22.520;2022-12-11T14:58:44;-2.90;99.90
20400;DHT22;10359;53.596;22.520;2022-12-11T15:01:40;-2.80;99.90
20400;DHT22;10359;53.596;22.520;2022-12-11T15:04:30;-2.70;99.90
20400;DHT22;10359;53.596;22.520;2022-12-11T15:07:22;-2.70;99.90
20400;DHT22;10359;53.596;22.520;2022-12-11T15:10:25;-2.70;99.90
20400;DHT22;10359;53.596;22.520;2022-12-11T15:13:22;-2.80;99.90
20400;DHT22;10359;53.596;22.520;2022-12-11T15:16:14;-2.80;99.90
20400;DHT22;10359;53.596;22.520;2022-12-11T15:19:05;-2.70;99.90
20400;DHT22;10359;53.596;22.520;2022-12-11T15:22:01;-2.70;99.90
20400;DHT22;10359;53.596;22.520;2022-12-11T15:24:52;-2.80;99.90
20400;DHT22;10359;53.596;22.520;2022-12-11T15:27:43;-2.70;99.90
20400;DHT22;10359;53.596;22.520;2022-12-11T15:30:34;-2.80;99.90
20400;DHT22;10359;53.596;22.520;2022-12-11T15:33:26;-2.80;99.90
20400;DHT22;10359;53.596;22.520;2022-12-11T15:36:25;-3.10;99.90
20400;DHT22;10359;53.596;22.520;2022-12-11T15:39:19;-2.90;99.90
20400;DHT22;10359;53.596;22.520;2022-12-11T15:42:23;-2.90;99.90
20400;DHT22;10359;53.596;22.520;2022-12-11T15:45:15;-2.90;99.90
20400;DHT22;10359;53.596;22.520;2022-12-11T15:48:08;-2.90;99.90
20400;DHT22;10359;53.596;22.520;2022-12-11T15:51:00;-3.00;99.90
20400;DHT22;10359;53.596;22.520;2022-12-11T15:53:50;-3.00;99.90
20400;DHT22;10359;53.596;22.520;2022-12-11T15:56:44;-3.00;99.90
20400;DHT22;10359;53.596;22.520;2022-12-11T15:59:35;-3.10;99.90
20400;DHT22;10359;53.596;22.520;2022-12-11T16:02:25;-3.00;99.90
20400;DHT22;10359;53.596;22.520;2022-12-11T16:05:14;-3.20;99.90
20400;DHT22;10359;53.596;22.520;2022-12-11T16:08:06;-3.50;99.90
20400;DHT22;10359;53.596;22.520;2022-12-11T16:10:56;-3.30;99.90
20400;DHT22;10359;53.596;22.520;2022-12-11T16:13:47;-3.30;99.90
20400;DHT22;10359;53.596;22.520;2022-12-11T16:16:37;-3.30;99.90
20400;DHT22;10359;53.596;22.520;2022-12-11T16:19:27;-3.60;99.90
20400;DHT22;10359;53.596;22.520;2022-12-11T16:22:17;-3.30;99.90
20400;DHT22;10359;53.596;22.520;2022-12-11T16:25:08;-3.40;99.90
20400;DHT22;10359;53.596;22.520;2022-12-11T16:27:59;-3.40;99.90
20400;DHT22;10359;53.596;22.520;2022-12-11T16:30:50;-3.30;99.90
20400;DHT22;10359;53.596;22.520;2022-12-11T16:33:40;-3.30;99.90
20400;DHT22;10359;53.596;22.520;2022-12-11T16:36:30;-3.30;99.90
20400;DHT22;10359;53.596;22.520;2022-12-11T16:39:21;-3.30;99.90
20400;DHT22;10359;53.596;22.520;2022-12-11T16:42:13;-3.20;99.90
20400;DHT22;10359;53.596;22.520;2022-12-11T16:45:05;-3.20;99.90
20400;DHT22;10359;53.596;22.520;2022-12-11T16:47:55;-3.20;99.90
20400;DHT22;10359;53.596;22.520;2022-12-11T16:50:45;-3.50;99.90
20400;DHT22;10359;53.596;22.520;2022-12-11T16:53:35;-3.40;99.90
20400;DHT22;10359;53.596;22.520;2022-12-11T16:56:29;-3.30;99.90
20400;DHT22;10359;53.596;22.520;2022-12-11T16:59:20;-3.30;99.90
20400;DHT22;10359;53.596;22.520;2022-12-11T17:02:10;-3.30;99.90
20400;DHT22;10359;53.596;22.520;2022-12-11T17:05:00;-3.50;99.90
20400;DHT22;10359;53.596;22.520;2022-12-11T17:07:50;-3.30;99.90
20400;DHT22;10359;53.596;22.520;2022-12-11T17:10:42;-3.60;99.90
20400;DHT22;10359;53.596;22.520;2022-12-11T17:13:32;-3.40;99.90
20400;DHT22;10359;53.596;22.520;2022-12-11T17:16:25;-3.40;99.90
20400;DHT22;10359;53.596;22.520;2022-12-11T17:19:17;-3.40;99.90
20400;DHT22;10359;53.596;22.520;2022-12-11T17:22:07;-3.60;99.90
20400;DHT22;10359;53.596;22.520;2022-12-11T17:24:57;-3.40;99.90
20400;DHT22;10359;53.596;22.520;2022-12-11T17:27:46;-3.40;99.90
20400;DHT22;10359;53.596;22.520;2022-12-11T17:30:39;-3.40;99.90
20400;DHT22;10359;53.596;22.520;2022-12-11T17:33:31;-3.30;99.90
20400;DHT22;10359;53.596;22.520;2022-12-11T17:36:24;-3.40;99.90
20400;DHT22;10359;53.596;22.520;2022-12-11T17:39:14;-3.40;99.90
20400;DHT22;10359;53.596;22.520;2022-12-11T17:42:05;-3.40;99.90
20400;DHT22;10359;53.596;22.520;2022-12-11T17:44:55;-3.20;99.90
20400;DHT22;10359;53.596;22.520;2022-12-11T17:47:45;-3.50;99.90
20400;DHT22;10359;53.596;22.520;2022-12-11T17:50:40;-3.40;99.90
20400;DHT22;10359;53.596;22.520;2022-12-11T17:53:32;-3.20;99.90
20400;DHT22;10359;53.596;22.520;2022-12-11T17:56:25;-3.70;99.90
20400;DHT22;10359;53.596;22.520;2022-12-11T17:59:16;-3.70;99.90
20400;DHT22;10359;53.596;22.520;2022-12-11T18:02:07;-3.40;99.90